sensor_id;sensor_type;location;lat;lon;timestamp;P1;durP1;ratioP1;P2;durP2;ratioP2
41229;SDS011;26964;50.428;19.218;2023-05-23T00:00:49;12.8;;;7.8;;
41229;SDS011;26964;50.428;19.218;2023-05-23T00:01:49;12.1;;;8.0;;
41229;SDS011;26964;50.428;19.218;2023-05-23T00:02:49;12.6;;;7.3;;
41229;SDS011;26964;50.428;19.218;2023-05-23T00:03:50;11.4;;;7.4;;
41229;SDS011;26964;50.428;19.218;2023-05-23T00:04:50;13.1;;;7.7;;
41229;SDS011;26964;50.428;19.218;2023-05-23T00:05:50;14.2;;;8.3;;
41229;SDS011;26964;50.428;19.218;2023-05-23T00:06:49;11.7;;;7.2;;
41229;SDS011;26964;50.428;19.218;2023-05-23T00:07:49;16.8;;;8.0;;
41229;SDS011;26964;50.428;19.218;2023-05-23T00:08:50;14.5;;;8.0;;
41229;SDS011;26964;50.428;19.218;2023-05-23T00:09:50;11.2;;;7.7;;
41229;SDS011;26964;50.428;19.218;2023-05-23T00:10:50;12.9;;;8.8;;
41229;SDS011;26964;50.428;19.218;2023-05-23T00:11:49;13.4;;;7.7;;
41229;SDS011;26964;50.428;19.218;2023-05-23T00:12:49;12.6;;;7.8;;
41229;SDS011;26964;50.428;19.218;2023-05-23T00:13:50;13.5;;;8.0;;
41229;SDS011;26964;50.428;19.218;2023-05-23T00:14:49;15.9;;;7.8;;
41229;SDS011;26964;50.428;19.218;2023-05-23T00:15:50;12.1;;;7.4;;
41229;SDS011;26964;50.428;19.218;2023-05-23T00:16:49;11.0;;;7.6;;
41229;SDS011;26964;50.428;19.218;2023-05-23T00:17:50;12.6;;;7.5;;
41229;SDS011;26964;50.428;19.218;2023-05-23T00:18:50;11.5;;;7.6;;
41229;SDS011;26964;50.428;19.218;2023-05-23T00:19:49;12.4;;;7.4;;
41229;SDS011;26964;50.428;19.218;2023-05-23T00:20:50;11.0;;;7.3;;
41229;SDS011;26964;50.428;19.218;2023-05-23T00:21:50;10.8;;;7.6;;
41229;SDS011;26964;50.428;19.218;2023-05-23T00:22:50;12.2;;;8.1;;
41229;SDS011;26964;50.428;19.218;2023-05-23T00:23:49;13.2;;;7.5;;
41229;SDS011;26964;50.428;19.218;2023-05-23T00:24:49;13.3;;;7.5;;
41229;SDS011;26964;50.428;19.218;2023-05-23T00:25:50;11.3;;;7.4;;
41229;SDS011;26964;50.428;19.218;2023-05-23T00:26:49;11.3;;;7.6;;
41229;SDS011;26964;50.428;19.218;2023-05-23T00:27:50;13.1;;;7.5;;
41229;SDS011;26964;50.428;19.218;2023-05-23T00:28:50;12.0;;;7.7;;
41229;SDS011;26964;50.428;19.218;2023-05-23T00:29:50;19.2;;;8.3;;
41229;SDS011;26964;50.428;19.218;2023-05-23T00:30:50;11.0;;;7.0;;
41229;SDS011;26964;50.428;19.218;2023-05-23T00:31:49;13.8;;;7.6;;
41229;SDS011;26964;50.428;19.218;2023-05-23T00:32:50;12.1;;;7.5;;
41229;SDS011;26964;50.428;19.218;2023-05-23T00:33:50;14.8;;;7.1;;
41229;SDS011;26964;50.428;19.218;2023-05-23T00:34:50;12.9;;;7.6;;
41229;SDS011;26964;50.428;19.218;2023-05-23T00:35:50;11.9;;;7.3;;
41229;SDS011;26964;50.428;19.218;2023-05-23T00:36:50;10.9;;;7.8;;
41229;SDS011;26964;50.428;19.218;2023-05-23T00:37:49;14.3;;;8.2;;
41229;SDS011;26964;50.428;19.218;2023-05-23T00:38:50;12.5;;;7.6;;
41229;SDS011;26964;50.428;19.218;2023-05-23T00:39:50;12.3;;;7.8;;
41229;SDS011;26964;50.428;19.218;2023-05-23T00:40:50;9.0;;;7.1;;
41229;SDS011;26964;50.428;19.218;2023-05-23T00:41:50;12.6;;;8.2;;
41229;SDS011;26964;50.428;19.218;2023-05-23T00:42:50;11.5;;;7.4;;
41229;SDS011;26964;50.428;19.218;2023-05-23T00:43:49;13.1;;;7.5;;
41229;SDS011;26964;50.428;19.218;2023-05-23T00:44:49;10.5;;;7.2;;
41229;SDS011;26964;50.428;19.218;2023-05-23T00:45:50;14.5;;;7.2;;
41229;SDS011;26964;50.428;19.218;2023-05-23T00:46:50;13.0;;;8.0;;
41229;SDS011;26964;50.428;19.218;2023-05-23T00:47:49;11.0;;;7.3;;
41229;SDS011;26964;50.428;19.218;2023-05-23T00:48:49;13.5;;;7.6;;
41229;SDS011;26964;50.428;19.218;2023-05-23T00:49:49;11.7;;;7.5;;
41229;SDS011;26964;50.428;19.218;2023-05-23T00:50:49;11.9;;;7.4;;
41229;SDS011;26964;50.428;19.218;2023-05-23T00:51:49;14.3;;;7.6;;
41229;SDS011;26964;50.428;19.218;2023-05-23T00:52:49;12.2;;;7.5;;
41229;SDS011;26964;50.428;19.218;2023-05-23T00:53:50;11.9;;;7.5;;
41229;SDS011;26964;50.428;19.218;2023-05-23T00:54:49;14.0;;;7.8;;
41229;SDS011;26964;50.428;19.218;2023-05-23T00:55:49;10.8;;;7.3;;
41229;SDS011;26964;50.428;19.218;2023-05-23T00:56:49;11.1;;;7.4;;
41229;SDS011;26964;50.428;19.218;2023-05-23T00:57:50;11.3;;;8.1;;
41229;SDS011;26964;50.428;19.218;2023-05-23T00:58:49;12.4;;;7.5;;
41229;SDS011;26964;50.428;19.218;2023-05-23T00:59:49;12.4;;;7.5;;
41229;SDS011;26964;50.428;19.218;2023-05-23T01:00:49;9.9;;;7.2;;
41229;SDS011;26964;50.428;19.218;2023-05-23T01:01:49;13.8;;;7.4;;
41229;SDS011;26964;50.428;19.218;2023-05-23T01:02:49;12.6;;;7.7;;
41229;SDS011;26964;50.428;19.218;2023-05-23T01:03:49;15.9;;;7.0;;
41229;SDS011;26964;50.428;19.218;2023-05-23T01:04:50;13.2;;;8.2;;
41229;SDS011;26964;50.428;19.218;2023-05-23T01:05:50;10.1;;;6.7;;
41229;SDS011;26964;50.428;19.218;2023-05-23T01:06:49;11.8;;;7.3;;
41229;SDS011;26964;50.428;19.218;2023-05-23T01:07:50;9.8;;;7.0;;
41229;SDS011;26964;50.428;19.218;2023-05-23T01:08:49;11.2;;;6.9;;
41229;SDS011;26964;50.428;19.218;2023-05-23T01:09:49;9.6;;;6.4;;
41229;SDS011;26964;50.428;19.218;2023-05-23T01:10:49;11.2;;;7.2;;
41229;SDS011;26964;50.428;19.218;2023-05-23T01:11:51;14.4;;;7.7;;
41229;SDS011;26964;50.428;19.218;2023-05-23T01:13:51;11.1;;;7.8;;
41229;SDS011;26964;50.428;19.218;2023-05-23T01:14:50;10.4;;;7.0;;
41229;SDS011;26964;50.428;19.218;2023-05-23T01:15:50;9.6;;;6.9;;
41229;SDS011;26964;50.428;19.218;2023-05-23T01:16:50;10.5;;;7.2;;
41229;SDS011;26964;50.428;19.218;2023-05-23T01:17:51;13.1;;;7.4;;
41229;SDS011;26964;50.428;19.218;2023-05-23T01:18:51;11.2;;;7.7;;
41229;SDS011;26964;50.428;19.218;2023-05-23T01:20:51;10.5;;;7.5;;
41229;SDS011;26964;50.428;19.218;2023-05-23T01:21:52;12.3;;;7.5;;
41229;SDS011;26964;50.428;19.218;2023-05-23T01:27:50;12.5;;;7.4;;
41229;SDS011;26964;50.428;19.218;2023-05-23T01:28:50;10.9;;;7.3;;
41229;SDS011;26964;50.428;19.218;2023-05-23T01:29:50;10.1;;;7.3;;
41229;SDS011;26964;50.428;19.218;2023-05-23T01:30:50;9.9;;;7.3;;
41229;SDS011;26964;50.428;19.218;2023-05-23T01:31:51;9.7;;;6.5;;
41229;SDS011;26964;50.428;19.218;2023-05-23T01:32:50;11.5;;;6.9;;
41229;SDS011;26964;50.428;19.218;2023-05-23T01:33:49;12.0;;;7.5;;
41229;SDS011;26964;50.428;19.218;2023-05-23T01:34:50;12.6;;;7.0;;
41229;SDS011;26964;50.428;19.218;2023-05-23T01:35:50;12.1;;;7.1;;
41229;SDS011;26964;50.428;19.218;2023-05-23T01:36:52;10.6;;;7.3;;
41229;SDS011;26964;50.428;19.218;2023-05-23T01:37:50;10.8;;;7.2;;
41229;SDS011;26964;50.428;19.218;2023-05-23T01:38:49;12.9;;;8.0;;
41229;SDS011;26964;50.428;19.218;2023-05-23T01:39:49;11.5;;;6.9;;
41229;SDS011;26964;50.428;19.218;2023-05-23T01:40:50;11.0;;;6.7;;
41229;SDS011;26964;50.428;19.218;2023-05-23T01:41:49;14.8;;;7.2;;
41229;SDS011;26964;50.428;19.218;2023-05-23T01:42:50;11.2;;;7.3;;
41229;SDS011;26964;50.428;19.218;2023-05-23T01:43:49;9.5;;;6.5;;
41229;SDS011;26964;50.428;19.218;2023-05-23T01:44:50;11.1;;;6.6;;
41229;SDS011;26964;50.428;19.218;2023-05-23T01:45:49;10.7;;;6.6;;
41229;SDS011;26964;50.428;19.218;2023-05-23T01:46:49;14.3;;;7.0;;
41229;SDS011;26964;50.428;19.218;2023-05-23T01:47:49;12.5;;;7.8;;
41229;SDS011;26964;50.428;19.218;2023-05-23T01:48:49;10.5;;;6.4;;
41229;SDS011;26964;50.428;19.218;2023-05-23T01:49:49;12.5;;;7.2;;
41229;SDS011;26964;50.428;19.218;2023-05-23T01:50:49;10.5;;;6.8;;
41229;SDS011;26964;50.428;19.218;2023-05-23T01:51:49;10.3;;;6.3;;
41229;SDS011;26964;50.428;19.218;2023-05-23T01:52:49;12.3;;;7.9;;
41229;SDS011;26964;50.428;19.218;2023-05-23T01:53:49;9.7;;;6.5;;
41229;SDS011;26964;50.428;19.218;2023-05-23T01:54:49;10.0;;;6.4;;
41229;SDS011;26964;50.428;19.218;2023-05-23T01:55:50;10.7;;;6.6;;
41229;SDS011;26964;50.428;19.218;2023-05-23T01:56:49;9.2;;;6.2;;
41229;SDS011;26964;50.428;19.218;2023-05-23T01:57:50;12.6;;;6.9;;
41229;SDS011;26964;50.428;19.218;2023-05-23T01:58:49;11.9;;;6.8;;
41229;SDS011;26964;50.428;19.218;2023-05-23T01:59:50;13.3;;;6.3;;
41229;SDS011;26964;50.428;19.218;2023-05-23T02:00:49;13.0;;;6.8;;
41229;SDS011;26964;50.428;19.218;2023-05-23T02:01:49;10.0;;;6.8;;
41229;SDS011;26964;50.428;19.218;2023-05-23T02:02:49;9.0;;;6.7;;
41229;SDS011;26964;50.428;19.218;2023-05-23T02:03:49;12.3;;;7.5;;
41229;SDS011;26964;50.428;19.218;2023-05-23T02:04:49;9.1;;;6.8;;
41229;SDS011;26964;50.428;19.218;2023-05-23T02:05:49;10.1;;;6.8;;
41229;SDS011;26964;50.428;19.218;2023-05-23T02:06:50;11.5;;;7.4;;
41229;SDS011;26964;50.428;19.218;2023-05-23T02:07:50;11.4;;;8.0;;
41229;SDS011;26964;50.428;19.218;2023-05-23T02:08:49;11.9;;;7.6;;
41229;SDS011;26964;50.428;19.218;2023-05-23T02:09:49;14.0;;;7.5;;
41229;SDS011;26964;50.428;19.218;2023-05-23T02:10:49;9.9;;;7.2;;
41229;SDS011;26964;50.428;19.218;2023-05-23T02:11:49;11.1;;;7.1;;
41229;SDS011;26964;50.428;19.218;2023-05-23T02:12:49;14.0;;;8.1;;
41229;SDS011;26964;50.428;19.218;2023-05-23T02:13:49;12.8;;;7.6;;
41229;SDS011;26964;50.428;19.218;2023-05-23T02:14:49;10.6;;;7.1;;
41229;SDS011;26964;50.428;19.218;2023-05-23T02:15:49;13.3;;;6.9;;
41229;SDS011;26964;50.428;19.218;2023-05-23T02:16:49;10.6;;;6.5;;
41229;SDS011;26964;50.428;19.218;2023-05-23T02:17:49;9.4;;;6.6;;
41229;SDS011;26964;50.428;19.218;2023-05-23T02:18:49;9.9;;;6.7;;
41229;SDS011;26964;50.428;19.218;2023-05-23T02:19:49;11.9;;;7.1;;
41229;SDS011;26964;50.428;19.218;2023-05-23T02:20:49;9.1;;;6.4;;
41229;SDS011;26964;50.428;19.218;2023-05-23T02:21:49;10.4;;;6.2;;
41229;SDS011;26964;50.428;19.218;2023-05-23T02:22:49;9.5;;;5.9;;
41229;SDS011;26964;50.428;19.218;2023-05-23T02:23:49;9.0;;;6.3;;
41229;SDS011;26964;50.428;19.218;2023-05-23T02:24:50;13.2;;;6.5;;
41229;SDS011;26964;50.428;19.218;2023-05-23T02:25:49;9.5;;;6.3;;
41229;SDS011;26964;50.428;19.218;2023-05-23T02:26:49;12.9;;;6.8;;
41229;SDS011;26964;50.428;19.218;2023-05-23T02:27:49;11.3;;;6.5;;
41229;SDS011;26964;50.428;19.218;2023-05-23T02:28:49;9.7;;;6.3;;
41229;SDS011;26964;50.428;19.218;2023-05-23T02:29:49;10.7;;;6.4;;
41229;SDS011;26964;50.428;19.218;2023-05-23T02:30:49;10.9;;;6.2;;
41229;SDS011;26964;50.428;19.218;2023-05-23T02:31:49;8.2;;;6.4;;
41229;SDS011;26964;50.428;19.218;2023-05-23T02:32:49;12.8;;;6.4;;
41229;SDS011;26964;50.428;19.218;2023-05-23T02:33:49;11.2;;;6.2;;
41229;SDS011;26964;50.428;19.218;2023-05-23T02:34:49;11.2;;;6.3;;
41229;SDS011;26964;50.428;19.218;2023-05-23T02:35:49;8.2;;;5.8;;
41229;SDS011;26964;50.428;19.218;2023-05-23T02:36:49;10.3;;;6.3;;
41229;SDS011;26964;50.428;19.218;2023-05-23T02:37:49;10.2;;;6.0;;
41229;SDS011;26964;50.428;19.218;2023-05-23T02:38:49;9.1;;;5.7;;
41229;SDS011;26964;50.428;19.218;2023-05-23T02:39:49;11.6;;;6.0;;
41229;SDS011;26964;50.428;19.218;2023-05-23T02:40:49;10.1;;;5.7;;
41229;SDS011;26964;50.428;19.218;2023-05-23T02:41:49;8.0;;;5.8;;
41229;SDS011;26964;50.428;19.218;2023-05-23T02:42:49;10.5;;;6.5;;
41229;SDS011;26964;50.428;19.218;2023-05-23T02:43:49;16.9;;;6.8;;
41229;SDS011;26964;50.428;19.218;2023-05-23T02:44:49;10.4;;;6.5;;
41229;SDS011;26964;50.428;19.218;2023-05-23T02:45:49;11.1;;;6.1;;
41229;SDS011;26964;50.428;19.218;2023-05-23T02:46:49;10.6;;;6.6;;
41229;SDS011;26964;50.428;19.218;2023-05-23T02:47:49;10.0;;;6.9;;
41229;SDS011;26964;50.428;19.218;2023-05-23T02:48:49;14.5;;;7.3;;
41229;SDS011;26964;50.428;19.218;2023-05-23T02:49:49;11.9;;;7.3;;
41229;SDS011;26964;50.428;19.218;2023-05-23T02:50:49;12.4;;;6.5;;
41229;SDS011;26964;50.428;19.218;2023-05-23T02:51:49;10.0;;;6.9;;
41229;SDS011;26964;50.428;19.218;2023-05-23T02:52:49;9.3;;;6.8;;
41229;SDS011;26964;50.428;19.218;2023-05-23T02:53:49;18.3;;;7.2;;
41229;SDS011;26964;50.428;19.218;2023-05-23T02:54:49;11.3;;;7.0;;
41229;SDS011;26964;50.428;19.218;2023-05-23T02:55:49;10.9;;;6.9;;
41229;SDS011;26964;50.428;19.218;2023-05-23T02:56:49;8.4;;;6.3;;
41229;SDS011;26964;50.428;19.218;2023-05-23T02:57:49;9.9;;;6.3;;
41229;SDS011;26964;50.428;19.218;2023-05-23T02:58:49;8.9;;;6.9;;
41229;SDS011;26964;50.428;19.218;2023-05-23T02:59:49;14.0;;;6.9;;
41229;SDS011;26964;50.428;19.218;2023-05-23T03:00:49;8.5;;;6.2;;
41229;SDS011;26964;50.428;19.218;2023-05-23T03:01:49;10.0;;;6.5;;
41229;SDS011;26964;50.428;19.218;2023-05-23T03:02:49;10.7;;;6.4;;
41229;SDS011;26964;50.428;19.218;2023-05-23T03:03:49;11.6;;;7.3;;
41229;SDS011;26964;50.428;19.218;2023-05-23T03:04:49;9.0;;;6.3;;
41229;SDS011;26964;50.428;19.218;2023-05-23T03:05:49;11.0;;;6.8;;
41229;SDS011;26964;50.428;19.218;2023-05-23T03:06:49;11.5;;;6.9;;
41229;SDS011;26964;50.428;19.218;2023-05-23T03:07:49;10.5;;;6.5;;
41229;SDS011;26964;50.428;19.218;2023-05-23T03:08:49;12.5;;;7.2;;
41229;SDS011;26964;50.428;19.218;2023-05-23T03:09:49;10.5;;;7.1;;
41229;SDS011;26964;50.428;19.218;2023-05-23T03:10:49;10.9;;;7.2;;
41229;SDS011;26964;50.428;19.218;2023-05-23T03:11:49;10.7;;;7.8;;
41229;SDS011;26964;50.428;19.218;2023-05-23T03:12:49;14.9;;;8.6;;
41229;SDS011;26964;50.428;19.218;2023-05-23T03:13:49;14.0;;;7.8;;
41229;SDS011;26964;50.428;19.218;2023-05-23T03:14:49;14.0;;;7.2;;
41229;SDS011;26964;50.428;19.218;2023-05-23T03:15:49;15.5;;;7.5;;
41229;SDS011;26964;50.428;19.218;2023-05-23T03:16:49;10.8;;;7.6;;
41229;SDS011;26964;50.428;19.218;2023-05-23T03:17:49;10.7;;;7.8;;
41229;SDS011;26964;50.428;19.218;2023-05-23T03:18:49;14.7;;;7.8;;
41229;SDS011;26964;50.428;19.218;2023-05-23T03:19:49;12.8;;;8.3;;
41229;SDS011;26964;50.428;19.218;2023-05-23T03:20:49;13.3;;;8.2;;
41229;SDS011;26964;50.428;19.218;2023-05-23T03:21:49;13.1;;;8.1;;
41229;SDS011;26964;50.428;19.218;2023-05-23T03:22:49;12.5;;;8.0;;
41229;SDS011;26964;50.428;19.218;2023-05-23T03:23:49;11.6;;;7.5;;
41229;SDS011;26964;50.428;19.218;2023-05-23T03:24:49;13.6;;;8.0;;
41229;SDS011;26964;50.428;19.218;2023-05-23T03:25:49;12.1;;;8.3;;
41229;SDS011;26964;50.428;19.218;2023-05-23T03:26:49;15.5;;;8.5;;
41229;SDS011;26964;50.428;19.218;2023-05-23T03:27:49;11.4;;;7.8;;
41229;SDS011;26964;50.428;19.218;2023-05-23T03:28:49;15.1;;;8.4;;
41229;SDS011;26964;50.428;19.218;2023-05-23T03:29:49;14.9;;;8.4;;
41229;SDS011;26964;50.428;19.218;2023-05-23T03:30:49;13.0;;;8.6;;
41229;SDS011;26964;50.428;19.218;2023-05-23T03:31:49;13.8;;;8.9;;
41229;SDS011;26964;50.428;19.218;2023-05-23T03:32:49;14.9;;;8.6;;
41229;SDS011;26964;50.428;19.218;2023-05-23T03:33:49;16.4;;;9.0;;
41229;SDS011;26964;50.428;19.218;2023-05-23T03:34:49;13.4;;;8.6;;
41229;SDS011;26964;50.428;19.218;2023-05-23T03:35:49;13.5;;;8.7;;
41229;SDS011;26964;50.428;19.218;2023-05-23T03:36:49;13.9;;;9.0;;
41229;SDS011;26964;50.428;19.218;2023-05-23T03:37:49;13.4;;;9.0;;
41229;SDS011;26964;50.428;19.218;2023-05-23T03:38:49;12.2;;;8.9;;
41229;SDS011;26964;50.428;19.218;2023-05-23T03:39:49;14.3;;;8.6;;
41229;SDS011;26964;50.428;19.218;2023-05-23T03:40:49;14.4;;;8.6;;
41229;SDS011;26964;50.428;19.218;2023-05-23T03:41:49;12.5;;;8.4;;
41229;SDS011;26964;50.428;19.218;2023-05-23T03:43:49;14.4;;;8.9;;
41229;SDS011;26964;50.428;19.218;2023-05-23T03:44:49;15.6;;;9.3;;
41229;SDS011;26964;50.428;19.218;2023-05-23T03:45:49;13.3;;;8.7;;
41229;SDS011;26964;50.428;19.218;2023-05-23T03:46:49;13.6;;;9.5;;
41229;SDS011;26964;50.428;19.218;2023-05-23T03:47:49;15.8;;;9.4;;
41229;SDS011;26964;50.428;19.218;2023-05-23T03:48:49;14.4;;;9.1;;
41229;SDS011;26964;50.428;19.218;2023-05-23T03:49:49;15.2;;;9.2;;
41229;SDS011;26964;50.428;19.218;2023-05-23T03:50:49;14.8;;;8.8;;
41229;SDS011;26964;50.428;19.218;2023-05-23T03:51:49;14.6;;;8.8;;
41229;SDS011;26964;50.428;19.218;2023-05-23T03:52:49;13.6;;;9.3;;
41229;SDS011;26964;50.428;19.218;2023-05-23T03:53:49;14.7;;;9.4;;
41229;SDS011;26964;50.428;19.218;2023-05-23T03:54:49;17.4;;;8.9;;
41229;SDS011;26964;50.428;19.218;2023-05-23T03:55:49;13.0;;;8.7;;
41229;SDS011;26964;50.428;19.218;2023-05-23T03:56:49;15.6;;;8.8;;
41229;SDS011;26964;50.428;19.218;2023-05-23T03:57:49;13.7;;;8.8;;
41229;SDS011;26964;50.428;19.218;2023-05-23T03:58:49;14.3;;;8.6;;
41229;SDS011;26964;50.428;19.218;2023-05-23T03:59:49;18.7;;;10.1;;
41229;SDS011;26964;50.428;19.218;2023-05-23T04:00:49;12.9;;;8.6;;
41229;SDS011;26964;50.428;19.218;2023-05-23T04:01:49;14.1;;;8.9;;
41229;SDS011;26964;50.428;19.218;2023-05-23T04:02:49;11.8;;;8.1;;
41229;SDS011;26964;50.428;19.218;2023-05-23T04:03:49;13.2;;;8.9;;
41229;SDS011;26964;50.428;19.218;2023-05-23T04:04:49;11.9;;;8.2;;
41229;SDS011;26964;50.428;19.218;2023-05-23T04:05:49;12.5;;;8.6;;
41229;SDS011;26964;50.428;19.218;2023-05-23T04:06:49;11.5;;;8.0;;
41229;SDS011;26964;50.428;19.218;2023-05-23T04:07:49;12.3;;;8.0;;
41229;SDS011;26964;50.428;19.218;2023-05-23T04:08:49;12.5;;;8.4;;
41229;SDS011;26964;50.428;19.218;2023-05-23T04:09:49;11.5;;;8.0;;
41229;SDS011;26964;50.428;19.218;2023-05-23T04:10:49;13.1;;;8.5;;
41229;SDS011;26964;50.428;19.218;2023-05-23T04:11:50;12.9;;;8.5;;
41229;SDS011;26964;50.428;19.218;2023-05-23T04:12:49;12.3;;;8.3;;
41229;SDS011;26964;50.428;19.218;2023-05-23T04:13:49;12.4;;;7.6;;
41229;SDS011;26964;50.428;19.218;2023-05-23T04:14:49;10.0;;;7.8;;
41229;SDS011;26964;50.428;19.218;2023-05-23T04:15:49;12.1;;;8.0;;
41229;SDS011;26964;50.428;19.218;2023-05-23T04:16:49;12.4;;;8.2;;
41229;SDS011;26964;50.428;19.218;2023-05-23T04:17:49;13.3;;;8.2;;
41229;SDS011;26964;50.428;19.218;2023-05-23T04:18:49;11.1;;;7.7;;
41229;SDS011;26964;50.428;19.218;2023-05-23T04:19:49;11.1;;;6.9;;
41229;SDS011;26964;50.428;19.218;2023-05-23T04:20:49;11.3;;;7.3;;
41229;SDS011;26964;50.428;19.218;2023-05-23T04:21:49;12.1;;;7.5;;
41229;SDS011;26964;50.428;19.218;2023-05-23T04:22:49;12.2;;;7.1;;
41229;SDS011;26964;50.428;19.218;2023-05-23T04:23:49;10.8;;;6.8;;
41229;SDS011;26964;50.428;19.218;2023-05-23T04:24:49;10.1;;;7.3;;
41229;SDS011;26964;50.428;19.218;2023-05-23T04:25:49;9.9;;;6.2;;
41229;SDS011;26964;50.428;19.218;2023-05-23T04:26:49;11.6;;;7.0;;
41229;SDS011;26964;50.428;19.218;2023-05-23T04:27:49;12.0;;;7.6;;
41229;SDS011;26964;50.428;19.218;2023-05-23T04:28:49;12.2;;;7.1;;
41229;SDS011;26964;50.428;19.218;2023-05-23T04:29:49;11.1;;;7.2;;
41229;SDS011;26964;50.428;19.218;2023-05-23T04:30:49;21.9;;;10.2;;
41229;SDS011;26964;50.428;19.218;2023-05-23T04:31:49;17.5;;;8.2;;
41229;SDS011;26964;50.428;19.218;2023-05-23T04:32:49;10.7;;;7.0;;
41229;SDS011;26964;50.428;19.218;2023-05-23T04:33:49;10.2;;;6.7;;
41229;SDS011;26964;50.428;19.218;2023-05-23T04:34:49;11.1;;;7.1;;
41229;SDS011;26964;50.428;19.218;2023-05-23T04:35:49;12.6;;;7.0;;
41229;SDS011;26964;50.428;19.218;2023-05-23T04:36:49;15.2;;;6.9;;
41229;SDS011;26964;50.428;19.218;2023-05-23T04:37:49;9.4;;;6.4;;
41229;SDS011;26964;50.428;19.218;2023-05-23T04:38:49;8.8;;;6.1;;
41229;SDS011;26964;50.428;19.218;2023-05-23T04:39:49;10.2;;;6.3;;
41229;SDS011;26964;50.428;19.218;2023-05-23T04:40:49;13.6;;;6.5;;
41229;SDS011;26964;50.428;19.218;2023-05-23T04:41:49;9.5;;;6.5;;
41229;SDS011;26964;50.428;19.218;2023-05-23T04:42:49;12.1;;;7.0;;
41229;SDS011;26964;50.428;19.218;2023-05-23T04:43:49;9.6;;;5.9;;
41229;SDS011;26964;50.428;19.218;2023-05-23T04:44:49;8.7;;;5.9;;
41229;SDS011;26964;50.428;19.218;2023-05-23T04:45:49;9.3;;;6.1;;
41229;SDS011;26964;50.428;19.218;2023-05-23T04:46:49;9.6;;;6.5;;
41229;SDS011;26964;50.428;19.218;2023-05-23T04:47:49;11.8;;;6.4;;
41229;SDS011;26964;50.428;19.218;2023-05-23T04:48:49;8.3;;;5.4;;
41229;SDS011;26964;50.428;19.218;2023-05-23T04:49:49;8.6;;;6.0;;
41229;SDS011;26964;50.428;19.218;2023-05-23T04:50:49;7.3;;;5.4;;
41229;SDS011;26964;50.428;19.218;2023-05-23T04:51:49;11.8;;;6.0;;
41229;SDS011;26964;50.428;19.218;2023-05-23T04:52:49;7.7;;;5.6;;
41229;SDS011;26964;50.428;19.218;2023-05-23T04:53:49;9.2;;;5.4;;
41229;SDS011;26964;50.428;19.218;2023-05-23T04:54:49;8.7;;;5.7;;
41229;SDS011;26964;50.428;19.218;2023-05-23T04:55:49;8.6;;;5.2;;
41229;SDS011;26964;50.428;19.218;2023-05-23T04:56:49;9.5;;;5.9;;
41229;SDS011;26964;50.428;19.218;2023-05-23T04:57:49;10.8;;;5.7;;
41229;SDS011;26964;50.428;19.218;2023-05-23T04:58:49;10.5;;;5.6;;
41229;SDS011;26964;50.428;19.218;2023-05-23T04:59:49;9.0;;;5.5;;
41229;SDS011;26964;50.428;19.218;2023-05-23T05:00:49;9.9;;;5.9;;
41229;SDS011;26964;50.428;19.218;2023-05-23T05:01:49;8.8;;;5.4;;
41229;SDS011;26964;50.428;19.218;2023-05-23T05:02:49;9.7;;;5.8;;
41229;SDS011;26964;50.428;19.218;2023-05-23T05:03:49;8.2;;;5.8;;
41229;SDS011;26964;50.428;19.218;2023-05-23T05:04:49;9.1;;;5.9;;
41229;SDS011;26964;50.428;19.218;2023-05-23T05:05:49;8.4;;;5.4;;
41229;SDS011;26964;50.428;19.218;2023-05-23T05:06:49;12.2;;;5.7;;
41229;SDS011;26964;50.428;19.218;2023-05-23T05:07:49;12.2;;;5.8;;
41229;SDS011;26964;50.428;19.218;2023-05-23T05:08:49;7.3;;;5.0;;
41229;SDS011;26964;50.428;19.218;2023-05-23T05:09:49;7.6;;;5.3;;
41229;SDS011;26964;50.428;19.218;2023-05-23T05:10:49;8.5;;;5.2;;
41229;SDS011;26964;50.428;19.218;2023-05-23T05:11:49;9.2;;;5.7;;
41229;SDS011;26964;50.428;19.218;2023-05-23T05:12:49;10.9;;;6.0;;
41229;SDS011;26964;50.428;19.218;2023-05-23T05:13:49;8.6;;;6.2;;
41229;SDS011;26964;50.428;19.218;2023-05-23T05:14:49;7.6;;;5.5;;
41229;SDS011;26964;50.428;19.218;2023-05-23T05:15:49;10.6;;;5.7;;
41229;SDS011;26964;50.428;19.218;2023-05-23T05:16:49;9.8;;;5.6;;
41229;SDS011;26964;50.428;19.218;2023-05-23T05:17:49;9.4;;;5.9;;
41229;SDS011;26964;50.428;19.218;2023-05-23T05:18:49;8.3;;;5.5;;
41229;SDS011;26964;50.428;19.218;2023-05-23T05:19:49;9.4;;;5.8;;
41229;SDS011;26964;50.428;19.218;2023-05-23T05:20:49;10.3;;;5.5;;
41229;SDS011;26964;50.428;19.218;2023-05-23T05:21:49;11.3;;;5.4;;
41229;SDS011;26964;50.428;19.218;2023-05-23T05:23:49;13.2;;;5.9;;
41229;SDS011;26964;50.428;19.218;2023-05-23T05:24:49;13.6;;;5.9;;
41229;SDS011;26964;50.428;19.218;2023-05-23T05:25:49;9.1;;;5.5;;
41229;SDS011;26964;50.428;19.218;2023-05-23T05:26:49;9.5;;;6.0;;
41229;SDS011;26964;50.428;19.218;2023-05-23T05:27:49;8.5;;;4.9;;
41229;SDS011;26964;50.428;19.218;2023-05-23T05:28:49;12.1;;;6.4;;
41229;SDS011;26964;50.428;19.218;2023-05-23T05:29:49;9.1;;;5.6;;
41229;SDS011;26964;50.428;19.218;2023-05-23T05:30:49;9.3;;;5.5;;
41229;SDS011;26964;50.428;19.218;2023-05-23T05:31:49;9.0;;;5.4;;
41229;SDS011;26964;50.428;19.218;2023-05-23T05:32:49;7.5;;;4.9;;
41229;SDS011;26964;50.428;19.218;2023-05-23T05:33:49;10.0;;;5.4;;
41229;SDS011;26964;50.428;19.218;2023-05-23T05:34:49;10.6;;;5.7;;
41229;SDS011;26964;50.428;19.218;2023-05-23T05:35:49;7.9;;;5.9;;
41229;SDS011;26964;50.428;19.218;2023-05-23T05:36:49;8.7;;;5.2;;
41229;SDS011;26964;50.428;19.218;2023-05-23T05:37:49;7.2;;;5.0;;
41229;SDS011;26964;50.428;19.218;2023-05-23T05:38:49;10.1;;;5.1;;
41229;SDS011;26964;50.428;19.218;2023-05-23T05:39:49;8.3;;;5.7;;
41229;SDS011;26964;50.428;19.218;2023-05-23T05:40:49;11.1;;;5.3;;
41229;SDS011;26964;50.428;19.218;2023-05-23T05:41:49;10.2;;;5.6;;
41229;SDS011;26964;50.428;19.218;2023-05-23T05:42:49;9.6;;;5.4;;
41229;SDS011;26964;50.428;19.218;2023-05-23T05:43:49;13.7;;;5.4;;
41229;SDS011;26964;50.428;19.218;2023-05-23T05:44:49;10.9;;;5.2;;
41229;SDS011;26964;50.428;19.218;2023-05-23T05:45:49;9.3;;;4.7;;
41229;SDS011;26964;50.428;19.218;2023-05-23T05:46:49;10.0;;;5.0;;
41229;SDS011;26964;50.428;19.218;2023-05-23T05:47:49;8.6;;;5.5;;
41229;SDS011;26964;50.428;19.218;2023-05-23T05:48:49;7.5;;;4.8;;
41229;SDS011;26964;50.428;19.218;2023-05-23T05:49:49;6.5;;;4.4;;
41229;SDS011;26964;50.428;19.218;2023-05-23T05:50:49;10.1;;;5.5;;
41229;SDS011;26964;50.428;19.218;2023-05-23T05:51:49;9.1;;;4.9;;
41229;SDS011;26964;50.428;19.218;2023-05-23T05:52:49;7.3;;;4.7;;
41229;SDS011;26964;50.428;19.218;2023-05-23T05:53:49;8.8;;;5.3;;
41229;SDS011;26964;50.428;19.218;2023-05-23T05:54:49;8.3;;;5.0;;
41229;SDS011;26964;50.428;19.218;2023-05-23T05:55:49;11.1;;;5.2;;
41229;SDS011;26964;50.428;19.218;2023-05-23T05:56:49;7.1;;;5.0;;
41229;SDS011;26964;50.428;19.218;2023-05-23T05:57:49;14.6;;;5.0;;
41229;SDS011;26964;50.428;19.218;2023-05-23T05:58:49;10.3;;;4.9;;
41229;SDS011;26964;50.428;19.218;2023-05-23T05:59:49;7.7;;;4.9;;
41229;SDS011;26964;50.428;19.218;2023-05-23T06:00:50;11.3;;;5.1;;
41229;SDS011;26964;50.428;19.218;2023-05-23T06:01:49;8.0;;;5.0;;
41229;SDS011;26964;50.428;19.218;2023-05-23T06:02:49;8.5;;;5.0;;
41229;SDS011;26964;50.428;19.218;2023-05-23T06:03:49;8.4;;;4.7;;
41229;SDS011;26964;50.428;19.218;2023-05-23T06:04:49;8.5;;;4.6;;
41229;SDS011;26964;50.428;19.218;2023-05-23T06:05:49;10.1;;;4.7;;
41229;SDS011;26964;50.428;19.218;2023-05-23T06:06:49;8.4;;;4.5;;
41229;SDS011;26964;50.428;19.218;2023-05-23T06:07:49;9.7;;;4.7;;
41229;SDS011;26964;50.428;19.218;2023-05-23T06:08:49;10.4;;;4.6;;
41229;SDS011;26964;50.428;19.218;2023-05-23T06:09:49;6.6;;;4.4;;
41229;SDS011;26964;50.428;19.218;2023-05-23T06:10:49;8.8;;;4.7;;
41229;SDS011;26964;50.428;19.218;2023-05-23T06:11:49;9.3;;;4.7;;